Time;durP1;ratioP1;P1;durP2;ratioP2;P2;SDS_P1;SDS_P2;PMS_P1;PMS_P2;Temp;Humidity;BMP_temperature;BMP_pressure;BME280_temperature;BME280_humidity;BME280_pressure;Samples;Min_cycle;Max_cycle;Signal;HPM_P1;HPM_P2
2023/05/25 00:00:12;;;;;;;10.30;6.30;;;;;;;17.96;100.00;100654.13;106222;1253;60623;-91
2023/05/25 00:03:02;;;;;;;11.60;6.20;;;;;;;18.02;100.00;100648.58;106474;1253;71688;-84
2023/05/25 00:05:52;;;;;;;8.10;6.20;;;;;;;18.10;100.00;100653.36;106388;1253;68839;-84
2023/05/25 00:08:41;;;;;;;10.10;6.10;;;;;;;18.13;100.00;100651.36;106218;1254;71437;-91
2023/05/25 00:11:30;;;;;;;9.90;5.80;;;;;;;18.20;100.00;100651.27;106467;1258;61699;-85
2023/05/25 00:14:18;;;;;;;10.00;6.10;;;;;;;18.22;100.00;100653.45;106464;1256;60445;-84
2023/05/25 00:17:08;;;;;;;11.40;5.40;;;;;;;18.29;100.00;100655.56;106440;1257;73970;-90
2023/05/25 00:20:01;;;;;;;10.70;6.10;;;;;;;18.35;100.00;100651.88;106289;1253;68849;-84
2023/05/25 00:22:51;;;;;;;;;;;;;;;18.36;100.00;100650.18;106362;1253;72794;-84
2023/05/25 00:25:40;;;;;;;9.80;6.20;;;;;;;18.38;100.00;100647.07;106458;1256;61720;-85
2023/05/25 00:28:29;;;;;;;7.50;5.70;;;;;;;18.38;100.00;100648.30;106242;1258;60824;-92
2023/05/25 00:31:18;;;;;;;10.30;6.20;;;;;;;18.46;100.00;100650.30;106444;1254;74405;-91
2023/05/25 00:34:07;;;;;;;6.70;4.80;;;;;;;18.43;100.00;100646.15;106484;1253;68420;-92
2023/05/25 00:36:55;;;;;;;8.90;6.30;;;;;;;18.42;100.00;100645.43;106498;1257;72929;-91
2023/05/25 00:39:44;;;;;;;9.40;6.50;;;;;;;18.42;100.00;100644.55;106379;1259;60431;-91
2023/05/25 00:42:32;;;;;;;9.40;5.90;;;;;;;18.44;100.00;100643.60;106613;1253;60535;-84
2023/05/25 00:45:21;;;;;;;9.10;5.40;;;;;;;18.39;100.00;100641.63;106368;1254;73686;-84
2023/05/25 00:48:10;;;;;;;10.90;5.40;;;;;;;18.44;100.00;100635.36;106579;1253;68721;-91
2023/05/25 00:50:58;;;;;;;8.00;5.50;;;;;;;18.46;100.00;100641.64;106474;1254;71662;-84
2023/05/25 00:53:47;;;;;;;9.70;5.50;;;;;;;18.52;100.00;100642.09;106540;1254;61421;-91
2023/05/25 00:56:37;;;;;;;9.60;5.70;;;;;;;18.55;100.00;100641.11;106619;1253;60385;-90
2023/05/25 00:59:34;;;;;;;8.60;6.50;;;;;;;18.50;100.00;100642.52;106561;1253;72524;-91
2023/05/25 01:02:25;;;;;;;8.00;5.80;;;;;;;18.46;100.00;100641.69;106380;1253;68329;-91
2023/05/25 01:05:14;;;;;;;10.40;5.70;;;;;;;18.43;100.00;100641.65;106094;1260;72688;-84
2023/05/25 01:08:03;;;;;;;9.80;5.80;;;;;;;18.46;100.00;100640.66;106363;1254;60713;-85
2023/05/25 01:10:52;;;;;;;9.60;6.70;;;;;;;18.53;100.00;100644.77;106350;1254;60555;-84
2023/05/25 01:13:41;;;;;;;8.30;5.80;;;;;;;18.52;100.00;100645.73;106385;1253;74149;-84
2023/05/25 01:16:30;;;;;;;9.30;5.60;;;;;;;18.55;100.00;100643.85;106396;1257;68708;-91
2023/05/25 01:19:18;;;;;;;8.10;5.60;;;;;;;18.61;100.00;100646.92;106394;1256;72487;-84
2023/05/25 01:22:22;;;;;;;7.90;5.90;;;;;;;18.63;100.00;100649.07;106369;1256;60392;-91
2023/05/25 01:25:13;;;;;;;7.90;5.30;;;;;;;18.57;100.00;100649.69;106183;1254;60516;-84
2023/05/25 01:28:14;;;;;;;7.90;5.50;;;;;;;18.56;100.00;100650.41;106392;1256;72661;-84
2023/05/25 01:31:03;;;;;;;9.90;6.00;;;;;;;18.57;100.00;100653.21;106356;1253;68710;-90
2023/05/25 01:33:52;;;;;;;10.20;5.40;;;;;;;18.58;100.00;100654.79;106495;1256;71465;-89
2023/05/25 01:36:40;;;;;;;10.40;5.60;;;;;;;18.56;100.00;100653.13;106482;1254;61733;-90
2023/05/25 01:39:29;;;;;;;9.40;5.80;;;;;;;18.62;100.00;100653.05;106492;1256;61302;-84
2023/05/25 01:42:18;;;;;;;8.60;5.50;;;;;;;18.57;100.00;100655.70;106442;1253;73431;-90
2023/05/25 01:45:08;;;;;;;9.60;5.60;;;;;;;18.61;100.00;100651.29;106492;1253;67673;-83
2023/05/25 01:48:12;;;;;;;7.50;5.50;;;;;;;18.60;100.00;100653.70;106399;1254;72320;-83
2023/05/25 01:51:08;;;;;;;8.70;5.20;;;;;;;18.60;100.00;100654.00;106491;1253;60564;-90
2023/05/25 01:54:02;;;;;;;7.40;5.90;;;;;;;18.70;100.00;100647.89;106905;1253;62668;-90
2023/05/25 01:56:52;;;;;;;10.60;5.80;;;;;;;18.75;100.00;100647.62;106494;1253;73847;-83
2023/05/25 01:59:41;;;;;;;7.80;5.80;;;;;;;18.65;100.00;100648.64;106368;1251;68159;-83
2023/05/25 02:02:30;;;;;;;9.50;5.60;;;;;;;18.66;100.00;100651.80;106243;1254;72656;-84
2023/05/25 02:05:19;;;;;;;6.00;5.10;;;;;;;18.63;100.00;100653.27;106267;1254;60812;-90
2023/05/25 02:08:07;;;;;;;7.70;5.40;;;;;;;18.66;100.00;100651.25;106401;1254;60470;-83
2023/05/25 02:10:56;;;;;;;7.30;5.30;;;;;;;18.79;100.00;100651.44;106734;1253;73832;-83
2023/05/25 02:13:45;;;;;;;8.60;5.00;;;;;;;18.77;100.00;100650.56;106397;1253;66148;-84
2023/05/25 02:16:33;;;;;;;6.80;5.20;;;;;;;18.80;100.00;100653.16;106477;1258;71409;-90
2023/05/25 02:19:22;;;;;;;8.10;5.80;;;;;;;18.84;100.00;100653.19;106354;1259;60475;-83
2023/05/25 02:22:11;;;;;;;8.70;5.40;;;;;;;18.90;100.00;100649.23;106601;1253;61948;-91
2023/05/25 02:25:01;;;;;;;9.20;5.40;;;;;;;18.98;100.00;100652.65;106128;1254;74007;-89
2023/05/25 02:27:50;;;;;;;10.40;5.50;;;;;;;19.08;100.00;100651.19;106380;1251;67235;-83
2023/05/25 02:30:39;;;;;;;7.70;5.40;;;;;;;19.06;100.00;100649.66;106691;1259;70520;-84
2023/05/25 02:33:27;;;;;;;7.50;5.20;;;;;;;19.12;100.00;100648.40;106298;1257;60530;-83
2023/05/25 02:36:17;;;;;;;9.40;5.30;;;;;;;19.19;100.00;100650.23;106216;1256;60340;-90
2023/05/25 02:39:05;;;;;;;8.70;5.80;;;;;;;19.12;100.00;100652.08;106196;1255;74729;-91
2023/05/25 02:41:54;;;;;;;10.40;5.90;;;;;;;19.15;100.00;100652.20;106510;1256;67996;-85
2023/05/25 02:44:47;;;;;;;8.80;5.60;;;;;;;19.10;100.00;100650.06;106332;1256;72455;-84
2023/05/25 02:47:35;;;;;;;7.40;6.10;;;;;;;19.07;100.00;100655.27;106506;1254;60406;-91
2023/05/25 02:50:24;;;;;;;12.20;6.20;;;;;;;19.10;100.00;100653.45;106437;1253;60626;-84
2023/05/25 02:53:15;;;;;;;10.60;6.20;;;;;;;19.09;100.00;100652.26;106353;1256;74336;-84
2023/05/25 02:56:04;;;;;;;7.90;5.10;;;;;;;19.18;100.00;100653.75;106477;1253;67229;-84
2023/05/25 02:58:53;;;;;;;12.80;6.70;;;;;;;19.20;100.00;100652.92;106540;1254;72397;-90
2023/05/25 03:01:50;;;;;;;8.30;5.80;;;;;;;19.29;100.00;100659.85;106537;1253;61795;-90
2023/05/25 03:04:40;;;;;;;9.20;6.10;;;;;;;19.35;100.00;100661.80;106197;1254;60489;-84
2023/05/25 03:07:29;;;;;;;9.90;6.00;;;;;;;19.31;100.00;100659.33;106243;1253;73276;-83
2023/05/25 03:10:18;;;;;;;10.40;5.90;;;;;;;19.29;100.00;100659.27;106080;1255;68361;-83
2023/05/25 03:13:07;;;;;;;10.30;5.80;;;;;;;19.35;100.00;100660.02;106178;1259;72489;-90
2023/05/25 03:15:58;;;;;;;11.00;6.50;;;;;;;19.41;100.00;100662.90;106550;1256;60428;-83
2023/05/25 03:18:47;;;;;;;10.10;6.30;;;;;;;19.46;100.00;100666.98;106272;1258;60947;-90
2023/05/25 03:21:36;;;;;;;9.10;6.30;;;;;;;19.52;100.00;100660.98;106285;1254;72639;-84
2023/05/25 03:24:25;;;;;;;8.60;5.90;;;;;;;19.60;100.00;100656.20;106264;1253;68376;-83
2023/05/25 03:27:17;;;;;;;9.10;6.20;;;;;;;19.70;100.00;100661.79;106411;1254;71465;-90
2023/05/25 03:30:07;;;;;;;10.90;5.80;;;;;;;19.69;100.00;100664.42;106199;1254;61788;-82
2023/05/25 03:32:55;;;;;;;8.80;6.40;;;;;;;19.68;100.00;100667.04;106350;1254;60357;-90
2023/05/25 03:35:45;;;;;;;11.40;6.10;;;;;;;19.79;100.00;100676.77;106388;1253;72547;-90
2023/05/25 03:38:35;;;;;;;11.60;5.90;;;;;;;19.87;100.00;100674.42;106262;1253;68662;-83
2023/05/25 03:41:24;;;;;;;8.90;6.10;;;;;;;20.00;100.00;100675.61;106405;1256;72682;-83
2023/05/25 03:44:13;;;;;;;9.20;6.20;;;;;;;20.09;100.00;100676.61;106570;1254;60434;-89
2023/05/25 03:47:01;;;;;;;9.70;6.00;;;;;;;20.18;100.00;100681.05;106302;1252;60497;-83
2023/05/25 03:49:50;;;;;;;7.20;5.20;;;;;;;20.27;100.00;100677.59;106240;1253;72352;-83
2023/05/25 03:52:39;;;;;;;9.90;5.90;;;;;;;20.28;100.00;100677.60;106512;1253;68394;-83
2023/05/25 03:55:29;;;;;;;10.10;5.90;;;;;;;20.33;100.00;100680.58;106468;1253;72704;-83
2023/05/25 03:58:18;;;;;;;8.60;5.50;;;;;;;20.39;100.00;100678.19;106348;1256;60562;-83
2023/05/25 04:01:08;;;;;;;6.80;4.90;;;;;;;20.48;100.00;100674.01;106455;1257;60342;-83
2023/05/25 04:03:56;;;;;;;9.60;6.00;;;;;;;20.61;100.00;100674.66;106399;1256;75091;-89
2023/05/25 04:06:47;;;;;;;11.10;5.90;;;;;;;20.73;100.00;100674.21;106265;1253;68003;-84
2023/05/25 04:09:36;;;;;;;9.50;5.90;;;;;;;20.86;100.00;100678.09;106155;1254;72614;-83
2023/05/25 04:12:28;;;;;;;15.00;6.30;;;;;;;20.95;100.00;100679.68;106303;1254;60459;-83
2023/05/25 04:15:17;;;;;;;9.50;6.50;;;;;;;21.01;100.00;100676.69;106323;1253;60489;-84
2023/05/25 04:18:18;;;;;;;8.00;6.00;;;;;;;21.09;100.00;100678.13;106397;1253;73662;-90
2023/05/25 04:21:08;;;;;;;9.60;6.00;;;;;;;21.20;100.00;100672.46;106486;1254;68867;-91
2023/05/25 04:23:56;;;;;;;10.80;6.50;;;;;;;21.36;100.00;100672.73;106460;1253;72738;-90
2023/05/25 04:26:46;;;;;;;9.00;6.30;;;;;;;21.50;100.00;100676.51;106360;1259;60439;-84
2023/05/25 04:29:37;;;;;;;10.10;6.40;;;;;;;21.62;100.00;100679.30;106382;1258;60382;-84
2023/05/25 04:32:49;;;;;;;13.30;6.80;;;;;;;21.69;100.00;100682.91;106239;1253;74336;-84
2023/05/25 04:35:57;;;;;;;11.90;6.40;;;;;;;21.72;100.00;100681.91;106281;1259;68551;-90
2023/05/25 04:38:46;;;;;;;13.00;6.70;;;;;;;21.76;100.00;100676.28;106220;1253;72635;-91
2023/05/25 04:41:36;;;;;;;11.20;6.20;;;;;;;21.82;100.00;100678.32;106076;1253;60518;-91
2023/05/25 04:44:29;;;;;;;9.20;6.30;;;;;;;21.90;100.00;100678.25;106341;1254;60408;-84
2023/05/25 04:47:18;;;;;;;13.70;6.40;;;;;;;22.07;100.00;100674.70;107692;1257;171875;-90
2023/05/25 04:50:09;;;;;;;11.20;6.60;;;;;;;22.22;100.00;100677.86;106298;1255;67431;-84
2023/05/25 04:52:57;;;;;;;13.40;6.60;;;;;;;22.29;100.00;100681.50;106140;1254;72444;-90
2023/05/25 04:55:46;;;;;;;9.30;6.30;;;;;;;22.44;100.00;100685.42;106281;1254;61060;-84
2023/05/25 04:58:35;;;;;;;9.60;6.50;;;;;;;22.58;100.00;100682.25;106336;1254;60594;-84
2023/05/25 05:01:25;;;;;;;15.10;6.90;;;;;;;22.71;100.00;100679.80;106283;1252;73903;-91
2023/05/25 05:04:16;;;;;;;10.20;6.50;;;;;;;22.82;100.00;100676.20;106480;1253;68299;-85
2023/05/25 05:07:06;;;;;;;8.00;5.90;;;;;;;22.92;100.00;100677.75;106131;1254;72728;-84
2023/05/25 05:09:55;;;;;;;7.70;5.60;;;;;;;23.09;100.00;100680.84;106148;1253;61509;-84
2023/05/25 05:12:45;;;;;;;8.50;5.30;;;;;;;23.25;100.00;100682.30;106161;1252;60587;-90
2023/05/25 05:15:33;;;;;;;9.30;6.40;;;;;;;23.38;100.00;100691.93;106253;1255;74581;-85
2023/05/25 05:18:22;;;;;;;7.80;5.30;;;;;;;23.33;100.00;100695.62;106248;1254;68855;-84
2023/05/25 16:44:40;;;;;;;2.90;2.60;;;;;;;29.25;74.40;100566.94;106631;1254;64508;-82
2023/05/25 16:47:29;;;;;;;4.10;2.80;;;;;;;29.24;75.16;100563.55;106302;1251;214406;-83
2023/05/25 16:50:17;;;;;;;3.00;2.60;;;;;;;29.13;74.39;100560.50;106487;1254;62532;-83
2023/05/25 16:53:06;;;;;;;3.20;2.90;;;;;;;29.05;73.50;100561.30;106486;1251;60499;-83
2023/05/25 16:55:55;;;;;;;6.10;3.10;;;;;;;28.95;72.83;100558.58;106320;1251;60361;-83
2023/05/25 16:58:43;;;;;;;5.00;2.60;;;;;;;28.73;73.91;100555.11;106415;1254;64878;-83
2023/05/25 17:01:32;;;;;;;5.10;2.60;;;;;;;28.63;72.38;100562.83;106716;1252;59300;-83
2023/05/25 17:04:21;;;;;;;3.80;2.30;;;;;;;28.68;70.46;100562.76;106394;1254;65319;-83
2023/05/25 17:07:10;;;;;;;6.00;2.60;;;;;;;28.59;68.80;100565.48;106444;1253;60501;-83
2023/05/25 17:09:58;;;;;;;5.70;2.80;;;;;;;28.57;68.50;100566.52;106470;1252;60553;-83
2023/05/25 17:12:47;;;;;;;2.90;2.60;;;;;;;28.63;68.91;100569.90;106444;1254;63734;-83
2023/05/25 17:15:39;;;;;;;2.50;2.30;;;;;;;28.55;70.13;100569.89;106444;1253;60242;-83
2023/05/25 17:18:28;;;;;;;3.30;2.80;;;;;;;28.50;71.12;100572.36;106392;1254;63750;-83
2023/05/25 17:21:17;;;;;;;4.60;2.90;;;;;;;28.39;71.78;100572.06;106361;1253;60501;-83
2023/05/25 17:24:06;;;;;;;5.80;2.90;;;;;;;28.37;71.58;100570.55;106432;1257;60392;-83
2023/05/25 17:26:54;;;;;;;5.50;2.60;;;;;;;28.32;70.90;100569.98;106312;1251;63663;-83
2023/05/25 17:29:43;;;;;;;3.60;2.50;;;;;;;28.16;70.63;100567.12;106410;1253;60536;-83
2023/05/25 17:32:32;;;;;;;6.10;2.70;;;;;;;27.95;70.98;100573.79;106481;1252;63129;-90
2023/05/25 17:35:20;;;;;;;5.20;2.80;;;;;;;27.69;68.65;100577.83;106367;1254;60456;-90
2023/05/25 17:38:09;;;;;;;3.40;2.40;;;;;;;27.48;68.12;100580.44;106413;1259;60495;-91
2023/05/25 17:40:58;;;;;;;2.90;2.70;;;;;;;27.15;69.34;100578.35;106354;1256;64885;-91
2023/05/25 17:43:47;;;;;;;6.70;2.60;;;;;;;27.09;69.76;100586.95;106458;1252;60476;-90
2023/05/25 17:46:35;;;;;;;3.00;2.70;;;;;;;26.85;70.75;100587.78;106375;1251;63850;-90
2023/05/25 17:49:24;;;;;;;5.20;2.90;;;;;;;26.68;71.39;100591.08;106423;1252;60411;-91
2023/05/25 17:52:13;;;;;;;5.00;2.40;;;;;;;26.46;72.55;100593.49;106405;1259;60466;-90
2023/05/25 17:55:01;;;;;;;5.60;2.00;;;;;;;26.21;72.75;100593.27;106544;1252;74885;-91
2023/05/25 17:57:50;;;;;;;4.70;2.50;;;;;;;26.31;70.13;100600.77;106515;1253;60326;-91
2023/05/25 18:00:40;;;;;;;2.60;2.20;;;;;;;26.29;70.36;100608.81;106297;1254;63736;-91
2023/05/25 18:03:29;;;;;;;3.40;2.30;;;;;;;26.12;71.74;100605.27;106445;1254;60957;-90
2023/05/25 18:06:18;;;;;;;3.60;2.20;;;;;;;25.99;72.17;100608.13;106394;1256;60409;-90
2023/05/25 18:09:06;;;;;;;4.20;2.30;;;;;;;25.89;72.04;100606.97;106356;1255;64919;-89
2023/05/25 18:11:55;;;;;;;5.70;2.60;;;;;;;25.76;72.19;100610.30;106383;1253;60421;-90
2023/05/25 18:14:44;;;;;;;3.30;2.20;;;;;;;25.70;73.00;100611.88;106323;1254;64683;-89
2023/05/25 18:17:32;;;;;;;3.40;2.10;;;;;;;25.50;74.94;100616.23;106470;1253;59225;-89
2023/05/25 18:20:21;;;;;;;2.60;2.30;;;;;;;25.29;76.45;100616.33;106363;1254;60435;-89
2023/05/25 18:23:12;;;;;;;2.10;1.80;;;;;;;25.12;78.07;100617.07;106626;1254;74521;-91
2023/05/25 18:26:00;;;;;;;6.00;2.30;;;;;;;24.99;79.01;100619.09;106477;1254;68731;-90
2023/05/25 18:28:49;;;;;;;2.40;1.80;;;;;;;24.90;78.53;100617.42;106275;1252;72685;-89
2023/05/25 18:31:44;;;;;;;2.30;2.00;;;;;;;24.85;78.53;100619.40;106360;1253;60520;-89
2023/05/25 18:34:33;;;;;;;2.40;2.00;;;;;;;24.65;79.31;100620.06;106358;1254;60434;-90
2023/05/25 18:37:22;;;;;;;2.50;2.00;;;;;;;24.57;79.91;100622.41;106380;1256;73958;-91
2023/05/25 18:40:11;;;;;;;3.20;2.00;;;;;;;24.56;79.65;100625.50;106382;1253;67633;-90
2023/05/25 18:43:00;;;;;;;5.80;2.10;;;;;;;24.49;80.30;100630.55;106341;1253;73642;-90
2023/05/25 18:45:48;;;;;;;5.20;2.40;;;;;;;24.33;81.36;100627.90;106237;1257;60460;-90
2023/05/25 18:48:37;;;;;;;4.80;2.70;;;;;;;24.14;83.85;100628.70;106506;1254;60511;-90
2023/05/25 18:51:26;;;;;;;4.30;2.90;;;;;;;24.12;85.82;100634.41;106507;1254;73778;-83
2023/05/25 18:54:14;;;;;;;3.50;3.00;;;;;;;23.96;88.78;100632.71;106247;1254;68410;-83
2023/05/25 18:57:03;;;;;;;5.20;2.90;;;;;;;23.89;91.11;100635.83;106493;1254;71401;-83
2023/05/25 18:59:52;;;;;;;6.30;3.20;;;;;;;23.80;93.34;100638.67;106306;1254;60858;-83
2023/05/25 19:02:40;;;;;;;5.30;2.90;;;;;;;23.66;96.64;100642.63;106420;1257;60352;-90
2023/05/25 19:05:29;;;;;;;4.90;2.90;;;;;;;23.51;99.65;100641.02;106384;1254;75088;-90
2023/05/25 19:08:17;;;;;;;5.70;3.30;;;;;;;23.31;100.00;100645.15;106265;1259;68885;-90
2023/05/25 19:11:06;;;;;;;5.80;3.30;;;;;;;23.16;100.00;100653.79;106591;1254;72716;-90
2023/05/25 19:13:55;;;;;;;5.30;3.00;;;;;;;23.08;100.00;100653.83;106589;1254;60523;-90
2023/05/25 19:17:10;;;;;;;4.70;3.10;;;;;;;23.11;100.00;100655.02;106461;1254;60645;-90
2023/05/25 19:20:36;;;;;;;3.60;2.60;;;;;;;23.01;100.00;100661.61;106445;1257;76239;-91
2023/05/25 19:23:26;;;;;;;3.10;2.60;;;;;;;22.83;100.00;100664.55;106413;1254;67255;-90
2023/05/25 19:26:17;;;;;;;5.80;3.20;;;;;;;22.69;100.00;100667.67;106417;1257;71449;-90
2023/05/25 19:29:05;;;;;;;7.90;3.10;;;;;;;22.70;100.00;100665.38;106266;1258;60360;-89
2023/05/25 19:31:54;;;;;;;4.00;2.90;;;;;;;22.66;100.00;100665.13;106390;1254;60418;-89
2023/05/25 19:34:43;;;;;;;5.80;2.80;;;;;;;22.53;100.00;100663.40;106484;1257;73841;-90
2023/05/25 19:37:31;;;;;;;6.30;3.50;;;;;;;22.46;100.00;100662.64;106265;1254;67104;-90
2023/05/25 19:40:20;;;;;;;5.20;3.40;;;;;;;22.49;100.00;100667.45;106428;1253;73543;-91
2023/05/25 19:43:09;;;;;;;4.90;3.10;;;;;;;22.47;100.00;100670.72;106403;1253;60510;-89
2023/05/25 19:45:58;;;;;;;5.10;3.10;;;;;;;22.42;100.00;100670.18;106386;1254;60479;-90
2023/05/25 19:48:50;;;;;;;8.30;3.10;;;;;;;22.29;100.00;100669.42;106414;1254;73812;-90
2023/05/25 19:51:39;;;;;;;4.40;3.90;;;;;;;22.35;100.00;100664.02;106728;1253;68356;-90
2023/05/25 19:54:27;;;;;;;9.80;4.60;;;;;;;22.33;100.00;100670.89;106301;1253;72749;-82
2023/05/25 19:57:16;;;;;;;6.10;3.70;;;;;;;22.21;100.00;100665.81;106348;1254;60425;-90
2023/05/25 20:00:05;;;;;;;5.10;3.70;;;;;;;22.01;100.00;100664.26;106393;1253;60550;-89
2023/05/25 20:03:04;;;;;;;4.50;3.50;;;;;;;21.94;100.00;100655.79;106320;1253;72946;-90
2023/05/25 20:05:55;;;;;;;3.70;3.40;;;;;;;21.81;100.00;100652.06;106394;1253;67103;-91
2023/05/25 20:08:43;;;;;;;7.10;3.50;;;;;;;21.80;100.00;100652.90;106420;1254;72642;-90
2023/05/25 20:11:32;;;;;;;4.90;3.50;;;;;;;21.77;100.00;100646.77;106543;1253;61289;-83
2023/05/25 20:14:20;;;;;;;3.70;2.90;;;;;;;21.78;100.00;100645.23;106391;1253;60341;-90
2023/05/25 20:17:09;;;;;;;3.60;3.20;;;;;;;21.80;100.00;100647.27;106303;1254;74143;-83
2023/05/25 20:19:59;;;;;;;7.70;3.80;;;;;;;21.71;100.00;100648.89;106372;1256;67232;-84
2023/05/25 20:22:48;;;;;;;6.10;3.50;;;;;;;21.76;100.00;100647.14;106433;1253;73193;-90
2023/05/25 20:25:37;;;;;;;4.80;3.40;;;;;;;21.74;100.00;100647.30;106523;1253;61779;-83
2023/05/25 20:28:25;;;;;;;4.30;3.60;;;;;;;21.71;100.00;100649.54;106309;1254;60510;-83
2023/05/25 20:31:14;;;;;;;4.20;3.50;;;;;;;21.55;100.00;100649.98;106488;1253;75309;-84
2023/05/25 20:34:03;;;;;;;4.60;3.90;;;;;;;21.43;100.00;100650.19;106343;1258;67453;-83
2023/05/25 20:36:52;;;;;;;5.90;4.10;;;;;;;21.42;100.00;100649.10;106302;1253;72679;-83
2023/05/25 20:39:41;;;;;;;3.60;3.20;;;;;;;21.48;100.00;100645.55;106358;1254;62297;-83
2023/05/25 20:42:29;;;;;;;4.80;3.70;;;;;;;21.64;100.00;100642.15;106348;1253;60457;-91
2023/05/25 20:45:18;;;;;;;4.50;3.50;;;;;;;21.55;100.00;100643.71;106403;1256;73046;-83
2023/05/25 20:48:06;;;;;;;5.70;3.40;;;;;;;21.48;100.00;100647.31;106358;1254;68917;-91
2023/05/25 20:50:55;;;;;;;4.30;3.40;;;;;;;21.47;100.00;100647.91;106211;1254;72428;-83
2023/05/25 20:53:44;;;;;;;4.70;3.40;;;;;;;21.49;100.00;100643.37;106260;1253;60405;-90
2023/05/25 20:56:32;;;;;;;3.50;3.20;;;;;;;21.46;100.00;100640.90;106408;1253;60521;-83
2023/05/25 20:59:22;;;;;;;3.90;3.20;;;;;;;21.49;100.00;100647.98;106144;1256;73883;-90
2023/05/25 21:02:10;;;;;;;4.30;3.00;;;;;;;21.55;100.00;100644.44;106325;1253;68367;-91
2023/05/25 21:04:59;;;;;;;3.70;3.00;;;;;;;21.57;100.00;100643.46;106503;1257;71455;-90
2023/05/25 21:07:49;;;;;;;3.80;3.10;;;;;;;21.59;100.00;100641.11;106235;1257;60636;-83
2023/05/25 21:10:38;;;;;;;6.40;3.60;;;;;;;21.65;100.00;100643.55;106293;1253;60546;-82
2023/05/25 21:13:26;;;;;;;5.40;3.30;;;;;;;21.68;100.00;100643.33;106461;1253;73758;-83
2023/05/25 21:16:15;;;;;;;5.60;3.20;;;;;;;21.58;100.00;100641.11;106319;1254;68585;-83
2023/05/25 21:19:04;;;;;;;4.30;3.20;;;;;;;21.57;100.00;100636.08;106333;1254;71034;-90
2023/05/25 21:21:52;;;;;;;5.30;3.10;;;;;;;21.55;100.00;100638.38;106311;1254;62258;-83
2023/05/25 21:24:41;;;;;;;3.90;3.50;;;;;;;21.63;100.00;100644.81;106109;1259;60411;-83
2023/05/25 21:27:30;;;;;;;5.60;3.80;;;;;;;21.66;100.00;100644.67;106195;1253;73727;-83
2023/05/25 21:30:19;;;;;;;4.70;3.60;;;;;;;21.59;100.00;100647.48;106352;1253;68790;-83
2023/05/25 21:33:08;;;;;;;7.10;3.30;;;;;;;21.54;100.00;100646.93;106302;1253;71391;-82
2023/05/25 21:35:57;;;;;;;4.70;3.60;;;;;;;21.61;100.00;100650.01;106151;1253;61113;-89
2023/05/25 21:38:45;;;;;;;5.70;3.50;;;;;;;21.60;100.00;100648.88;106470;1256;60421;-89
2023/05/25 21:41:34;;;;;;;5.10;3.40;;;;;;;21.57;100.00;100648.85;105982;1260;74348;-89
2023/05/25 21:44:22;;;;;;;4.70;3.60;;;;;;;21.54;100.00;100649.33;106239;1253;68338;-83
2023/05/25 21:47:11;;;;;;;6.70;3.40;;;;;;;21.51;100.00;100654.30;106368;1253;73433;-90
2023/05/25 21:50:00;;;;;;;4.60;3.80;;;;;;;21.51;100.00;100652.86;106323;1253;60514;-83
2023/05/25 21:52:49;;;;;;;4.00;3.40;;;;;;;21.56;100.00;100649.92;106623;1256;60317;-83
2023/05/25 21:55:37;;;;;;;4.50;3.30;;;;;;;21.58;100.00;100649.14;106359;1256;73866;-83
2023/05/25 21:58:26;;;;;;;3.70;3.40;;;;;;;21.40;100.00;100649.09;106389;1257;67448;-83
2023/05/25 22:01:14;;;;;;;6.60;3.70;;;;;;;20.79;100.00;100648.55;106363;1254;71398;-89
2023/05/25 22:04:03;;;;;;;7.20;4.30;;;;;;;20.55;100.00;100651.75;106328;1256;60564;-83
2023/05/25 22:06:52;;;;;;;8.90;3.50;;;;;;;20.40;100.00;100651.02;106261;1253;60296;-91
2023/05/25 22:09:41;;;;;;;5.10;4.10;;;;;;;20.49;100.00;100655.27;106374;1255;72790;-91
2023/05/25 22:12:30;;;;;;;5.10;4.20;;;;;;;20.77;100.00;100649.92;106240;1253;67664;-83
2023/05/25 22:15:18;;;;;;;4.80;4.10;;;;;;;20.69;100.00;100644.16;106321;1256;71155;-91
2023/05/25 22:18:07;;;;;;;5.40;4.00;;;;;;;20.62;100.00;100650.19;106319;1258;62111;-83
2023/05/25 22:20:56;;;;;;;4.50;4.00;;;;;;;20.68;100.00;100647.61;106453;1253;60474;-89
2023/05/25 22:23:44;;;;;;;5.60;4.00;;;;;;;20.72;100.00;100649.48;106316;1253;75888;-90
2023/05/25 22:26:33;;;;;;;4.90;3.90;;;;;;;20.67;100.00;100649.42;106340;1254;68682;-83
2023/05/25 22:29:22;;;;;;;4.50;3.80;;;;;;;20.57;100.00;100646.45;106199;1253;72694;-83
2023/05/25 22:32:10;;;;;;;6.70;4.40;;;;;;;20.59;100.00;100647.56;106313;1253;60537;-89
2023/05/25 22:34:59;;;;;;;6.50;3.70;;;;;;;20.67;100.00;100651.21;106360;1259;60470;-83
2023/05/25 22:37:48;;;;;;;6.10;4.30;;;;;;;20.72;100.00;100648.31;106339;1257;73849;-83
2023/05/25 22:40:37;;;;;;;8.00;4.20;;;;;;;20.81;100.00;100652.04;106525;1257;67608;-90
2023/05/25 22:43:26;;;;;;;6.10;4.40;;;;;;;20.96;100.00;100653.20;106417;1253;72573;-83
2023/05/25 22:46:14;;;;;;;7.50;4.80;;;;;;;21.05;100.00;100650.62;106250;1257;60537;-90
2023/05/25 22:49:03;;;;;;;7.20;4.70;;;;;;;21.01;100.00;100659.63;106232;1253;60606;-89
2023/05/25 22:51:51;;;;;;;7.80;4.90;;;;;;;21.13;100.00;100663.11;106384;1253;74985;-84
2023/05/25 22:54:40;;;;;;;7.40;4.60;;;;;;;21.17;100.00;100663.09;106319;1256;67604;-90
2023/05/25 22:57:28;;;;;;;8.10;4.70;;;;;;;21.13;100.00;100662.80;106288;1256;72447;-88
2023/05/25 23:00:17;;;;;;;5.50;4.20;;;;;;;21.20;100.00;100664.85;106405;1254;60553;-84
2023/05/25 23:03:06;;;;;;;7.90;4.20;;;;;;;21.20;100.00;100665.17;106258;1253;60509;-91
2023/05/25 23:05:55;;;;;;;8.00;4.80;;;;;;;21.16;100.00;100665.91;106330;1253;73272;-84
2023/05/25 23:08:45;;;;;;;9.20;5.50;;;;;;;21.14;100.00;100663.71;106185;1255;68680;-91
2023/05/25 23:11:33;;;;;;;7.60;5.20;;;;;;;21.11;100.00;100662.51;106392;1257;71420;-90
2023/05/25 23:14:22;;;;;;;7.80;5.50;;;;;;;20.95;100.00;100658.23;106274;1253;61658;-90
2023/05/25 23:17:11;;;;;;;6.30;5.00;;;;;;;20.81;100.00;100658.30;106445;1259;61006;-83
2023/05/25 23:20:00;;;;;;;6.00;4.70;;;;;;;20.79;100.00;100655.91;106096;1259;73930;-83
2023/05/25 23:22:49;;;;;;;7.30;4.90;;;;;;;20.86;100.00;100654.76;106449;1256;67447;-83
2023/05/25 23:25:38;;;;;;;7.50;5.80;;;;;;;20.87;100.00;100652.87;106213;1257;72703;-90
2023/05/25 23:28:27;;;;;;;6.10;5.20;;;;;;;20.86;100.00;100652.05;106299;1253;60806;-83
2023/05/25 23:31:15;;;;;;;6.10;4.40;;;;;;;20.84;100.00;100649.23;106358;1259;60405;-83
2023/05/25 23:34:04;;;;;;;7.00;5.30;;;;;;;20.82;100.00;100651.83;106265;1253;73150;-83
2023/05/25 23:36:53;;;;;;;5.40;4.30;;;;;;;20.81;100.00;100647.60;106508;1253;67174;-85
2023/05/25 23:39:42;;;;;;;6.50;4.70;;;;;;;20.74;100.00;100647.98;106364;1253;72625;-84
2023/05/25 23:42:37;;;;;;;7.90;5.20;;;;;;;20.75;100.00;100652.85;106262;1253;60523;-83
2023/05/25 23:45:26;;;;;;;7.10;5.00;;;;;;;20.68;100.00;100659.48;106231;1256;60536;-83
2023/05/25 23:48:15;;;;;;;8.40;5.00;;;;;;;20.48;100.00;100666.14;106345;1253;73902;-91
2023/05/25 23:51:06;;;;;;;7.00;4.70;;;;;;;20.54;100.00;100670.98;106277;1253;68460;-83
2023/05/25 23:53:54;;;;;;;8.60;5.40;;;;;;;20.51;100.00;100664.92;106291;1256;72728;-83
2023/05/25 23:56:43;;;;;;;7.60;5.00;;;;;;;20.55;100.00;100668.44;106381;1254;60493;-84
2023/05/25 23:59:32;;;;;;;6.60;5.40;;;;;;;20.53;100.00;100674.13;106213;1253;60571;-90
